Terminal Aerodrome Forecast
Issued by NWS Omaha/Valley, NE

Home | Current Version | Previous Version | Text Only | Print | Product List | Glossary On
Versions: 1 2 3 4 5 6 7 8 9 10 11 12 13 14 15 16 17
000
FTUS43 KOAX 240123 AAA
TAFOMA
TAF AMD
KOMA 240123Z 2401/2424 01009KT P6SM OVC013
     FM241100 07008KT 4SM -SN OVC008
     FM241500 08008KT 2SM -FZRA OVC006
     FM241800 10008KT 1 1/2SM -FZRASN OVC003=

USA.gov is the U.S. government's official web portal to all federal, state and local government web resources and services.